sensor_id;sensor_type;location;lat;lon;timestamp;pressure;altitude;pressure_sealevel;temperature;humidity
46347;BME280;32057;47.830;19.046;2023-06-22T00:00:56;100410.09;;;19.84;100.00
46347;BME280;32057;47.830;19.046;2023-06-22T00:03:23;100406.59;;;19.84;100.00
46347;BME280;32057;47.830;19.046;2023-06-22T00:05:49;100407.44;;;19.86;100.00
46347;BME280;32057;47.830;19.046;2023-06-22T00:08:16;100418.00;;;19.84;100.00
46347;BME280;32057;47.830;19.046;2023-06-22T00:10:42;100406.47;;;19.92;100.00
46347;BME280;32057;47.830;19.046;2023-06-22T00:13:08;100404.66;;;19.95;100.00
46347;BME280;32057;47.830;19.046;2023-06-22T00:15:35;100400.34;;;19.89;100.00
46347;BME280;32057;47.830;19.046;2023-06-22T00:18:01;100396.84;;;19.87;100.00
46347;BME280;32057;47.830;19.046;2023-06-22T00:20:27;100391.47;;;19.94;100.00
46347;BME280;32057;47.830;19.046;2023-06-22T00:22:57;100405.59;;;19.91;100.00
46347;BME280;32057;47.830;19.046;2023-06-22T00:25:22;100394.09;;;19.95;100.00
46347;BME280;32057;47.830;19.046;2023-06-22T00:27:48;100400.31;;;19.91;100.00
46347;BME280;32057;47.830;19.046;2023-06-22T00:30:18;100401.31;;;19.82;100.00
46347;BME280;32057;47.830;19.046;2023-06-22T00:32:44;100392.69;;;19.73;100.00
46347;BME280;32057;47.830;19.046;2023-06-22T00:35:11;100391.91;;;19.64;100.00
46347;BME280;32057;47.830;19.046;2023-06-22T00:37:37;100388.31;;;19.72;100.00
46347;BME280;32057;47.830;19.046;2023-06-22T00:40:04;100392.84;;;19.60;100.00
46347;BME280;32057;47.830;19.046;2023-06-22T00:42:30;100397.38;;;19.52;100.00
46347;BME280;32057;47.830;19.046;2023-06-22T00:44:56;100394.66;;;19.57;100.00
46347;BME280;32057;47.830;19.046;2023-06-22T00:47:21;100398.97;;;19.62;100.00
46347;BME280;32057;47.830;19.046;2023-06-22T00:49:48;100392.75;;;19.65;100.00
46347;BME280;32057;47.830;19.046;2023-06-22T00:52:17;100396.31;;;19.65;100.00
46347;BME280;32057;47.830;19.046;2023-06-22T00:54:47;100399.06;;;19.56;100.00
46347;BME280;32057;47.830;19.046;2023-06-22T00:57:14;100402.53;;;19.61;100.00
46347;BME280;32057;47.830;19.046;2023-06-22T00:59:47;100401.69;;;19.58;100.00
46347;BME280;32057;47.830;19.046;2023-06-22T01:02:13;100400.94;;;19.51;100.00
46347;BME280;32057;47.830;19.046;2023-06-22T01:04:40;100397.38;;;19.52;100.00
46347;BME280;32057;47.830;19.046;2023-06-22T01:07:39;100399.19;;;19.47;100.00
46347;BME280;32057;47.830;19.046;2023-06-22T01:12:47;100406.34;;;19.42;100.00
46347;BME280;32057;47.830;19.046;2023-06-22T01:15:21;100411.63;;;19.42;100.00
46347;BME280;32057;47.830;19.046;2023-06-22T01:17:49;100418.59;;;19.46;100.00
46347;BME280;32057;47.830;19.046;2023-06-22T01:20:17;100405.38;;;19.46;100.00
46347;BME280;32057;47.830;19.046;2023-06-22T01:25:33;100407.19;;;19.42;100.00
46347;BME280;32057;47.830;19.046;2023-06-22T01:30:30;100413.31;;;19.46;100.00
46347;BME280;32057;47.830;19.046;2023-06-22T01:33:01;100418.47;;;19.55;100.00
46347;BME280;32057;47.830;19.046;2023-06-22T01:35:29;100409.69;;;19.53;100.00
46347;BME280;32057;47.830;19.046;2023-06-22T01:37:55;100407.91;;;19.55;100.00
46347;BME280;32057;47.830;19.046;2023-06-22T01:40:21;100411.31;;;19.60;100.00
46347;BME280;32057;47.830;19.046;2023-06-22T01:42:47;100413.94;;;19.63;100.00
46347;BME280;32057;47.830;19.046;2023-06-22T01:45:13;100408.66;;;19.62;100.00
46347;BME280;32057;47.830;19.046;2023-06-22T01:47:40;100403.31;;;19.65;100.00
46347;BME280;32057;47.830;19.046;2023-06-22T01:50:06;100399.91;;;19.58;100.00
46347;BME280;32057;47.830;19.046;2023-06-22T01:52:32;100406.88;;;19.65;100.00
46347;BME280;32057;47.830;19.046;2023-06-22T01:54:59;100413.94;;;19.63;100.00
46347;BME280;32057;47.830;19.046;2023-06-22T01:57:25;100406.91;;;19.62;100.00
46347;BME280;32057;47.830;19.046;2023-06-22T01:59:59;100407.84;;;19.58;100.00
46347;BME280;32057;47.830;19.046;2023-06-22T02:02:39;100414.28;;;19.40;100.00
46347;BME280;32057;47.830;19.046;2023-06-22T02:05:09;100428.31;;;19.41;100.00
46347;BME280;32057;47.830;19.046;2023-06-22T02:07:43;100430.97;;;19.41;100.00
46347;BME280;32057;47.830;19.046;2023-06-22T02:10:10;100424.81;;;19.40;100.00
46347;BME280;32057;47.830;19.046;2023-06-22T02:12:38;100425.78;;;19.35;100.00
46347;BME280;32057;47.830;19.046;2023-06-22T02:15:06;100426.59;;;19.41;100.00
46347;BME280;32057;47.830;19.046;2023-06-22T02:17:33;100432.72;;;19.42;100.00
46347;BME280;32057;47.830;19.046;2023-06-22T02:19:58;100428.41;;;19.36;100.00
46347;BME280;32057;47.830;19.046;2023-06-22T02:22:24;100429.22;;;19.41;100.00
46347;BME280;32057;47.830;19.046;2023-06-22T02:24:49;100436.25;;;19.41;100.00
46347;BME280;32057;47.830;19.046;2023-06-22T02:27:15;100431.06;;;19.35;100.00
46347;BME280;32057;47.830;19.046;2023-06-22T02:32:43;100431.13;;;19.32;100.00
46347;BME280;32057;47.830;19.046;2023-06-22T02:35:09;100434.50;;;19.40;100.00
46347;BME280;32057;47.830;19.046;2023-06-22T02:37:36;100437.22;;;19.35;100.00
46347;BME280;32057;47.830;19.046;2023-06-22T02:40:07;100445.19;;;19.30;100.00
46347;BME280;32057;47.830;19.046;2023-06-22T02:42:34;100444.34;;;19.28;100.00
46347;BME280;32057;47.830;19.046;2023-06-22T02:45:00;100455.78;;;19.27;100.00
46347;BME280;32057;47.830;19.046;2023-06-22T02:47:25;100445.25;;;19.26;100.00
46347;BME280;32057;47.830;19.046;2023-06-22T02:49:51;100456.75;;;19.20;100.00
46347;BME280;32057;47.830;19.046;2023-06-22T02:52:17;100459.44;;;19.17;100.00
46347;BME280;32057;47.830;19.046;2023-06-22T02:54:42;100442.78;;;19.14;100.00
46347;BME280;32057;47.830;19.046;2023-06-22T02:57:10;100444.53;;;19.15;100.00
46347;BME280;32057;47.830;19.046;2023-06-22T02:59:39;100443.56;;;19.20;100.00
46347;BME280;32057;47.830;19.046;2023-06-22T03:02:06;100440.06;;;19.21;100.00
46347;BME280;32057;47.830;19.046;2023-06-22T03:04:31;100434.88;;;19.12;100.00
46347;BME280;32057;47.830;19.046;2023-06-22T03:06:57;100449.69;;;19.22;100.00
46347;BME280;32057;47.830;19.046;2023-06-22T03:09:26;100443.47;;;19.29;100.00
46347;BME280;32057;47.830;19.046;2023-06-22T03:11:53;100449.63;;;19.28;100.00
46347;BME280;32057;47.830;19.046;2023-06-22T03:14:18;100449.50;;;19.36;100.00
46347;BME280;32057;47.830;19.046;2023-06-22T03:16:44;100440.66;;;19.40;100.00
46347;BME280;32057;47.830;19.046;2023-06-22T03:19:09;100446.78;;;19.41;100.00
46347;BME280;32057;47.830;19.046;2023-06-22T03:21:35;100441.59;;;19.38;100.00
46347;BME280;32057;47.830;19.046;2023-06-22T03:24:04;100434.63;;;19.30;100.00
46347;BME280;32057;47.830;19.046;2023-06-22T03:26:30;100431.97;;;19.34;100.00
46347;BME280;32057;47.830;19.046;2023-06-22T03:28:55;100438.13;;;19.33;100.00
46347;BME280;32057;47.830;19.046;2023-06-22T03:31:21;100440.75;;;19.34;100.00
46347;BME280;32057;47.830;19.046;2023-06-22T03:33:48;100438.97;;;19.36;100.00
46347;BME280;32057;47.830;19.046;2023-06-22T03:36:14;100433.66;;;19.39;100.00
46347;BME280;32057;47.830;19.046;2023-06-22T03:38:47;100436.25;;;19.41;100.00
46347;BME280;32057;47.830;19.046;2023-06-22T03:41:12;100439.91;;;19.32;100.00
46347;BME280;32057;47.830;19.046;2023-06-22T03:43:38;100442.59;;;19.27;100.00
46347;BME280;32057;47.830;19.046;2023-06-22T03:46:03;100440.84;;;19.28;100.00
46347;BME280;32057;47.830;19.046;2023-06-22T03:48:29;100438.19;;;19.29;100.00
46347;BME280;32057;47.830;19.046;2023-06-22T03:50:54;100444.34;;;19.27;100.00
46347;BME280;32057;47.830;19.046;2023-06-22T03:53:20;100447.88;;;19.27;100.00
46347;BME280;32057;47.830;19.046;2023-06-22T03:55:49;100446.94;;;19.32;100.00
46347;BME280;32057;47.830;19.046;2023-06-22T03:58:19;100446.03;;;19.33;100.00
46347;BME280;32057;47.830;19.046;2023-06-22T04:00:49;100447.72;;;19.38;100.00
46347;BME280;32057;47.830;19.046;2023-06-22T04:03:15;100455.56;;;19.44;100.00
46347;BME280;32057;47.830;19.046;2023-06-22T04:05:41;100456.38;;;19.49;100.00
46347;BME280;32057;47.830;19.046;2023-06-22T04:08:07;100453.66;;;19.54;100.00
46347;BME280;32057;47.830;19.046;2023-06-22T04:10:32;100458.91;;;19.57;100.00
46347;BME280;32057;47.830;19.046;2023-06-22T04:12:58;100453.53;;;19.62;100.00
46347;BME280;32057;47.830;19.046;2023-06-22T04:15:23;100457.03;;;19.65;100.00
46347;BME280;32057;47.830;19.046;2023-06-22T04:17:49;100457.88;;;19.67;100.00
46347;BME280;32057;47.830;19.046;2023-06-22T04:20:14;100455.22;;;19.67;100.00
46347;BME280;32057;47.830;19.046;2023-06-22T04:22:39;100463.16;;;19.67;100.00
46347;BME280;32057;47.830;19.046;2023-06-22T04:25:06;100471.00;;;19.74;100.00
46347;BME280;32057;47.830;19.046;2023-06-22T04:27:33;100474.44;;;19.79;100.00
46347;BME280;32057;47.830;19.046;2023-06-22T04:30:05;100465.56;;;19.83;100.00
46347;BME280;32057;47.830;19.046;2023-06-22T04:32:32;100461.09;;;19.88;100.00
46347;BME280;32057;47.830;19.046;2023-06-22T04:34:57;100463.75;;;19.88;100.00
46347;BME280;32057;47.830;19.046;2023-06-22T04:37:22;100463.59;;;19.97;100.00
46347;BME280;32057;47.830;19.046;2023-06-22T04:39:49;100466.28;;;19.94;100.00
46347;BME280;32057;47.830;19.046;2023-06-22T04:42:15;100461.97;;;19.87;100.00
46347;BME280;32057;47.830;19.046;2023-06-22T04:44:40;100474.19;;;19.94;100.00
46347;BME280;32057;47.830;19.046;2023-06-22T04:47:06;100470.47;;;20.07;100.00
46347;BME280;32057;47.830;19.046;2023-06-22T04:49:34;100477.78;;;19.90;100.00
46347;BME280;32057;47.830;19.046;2023-06-22T04:52:09;100478.75;;;19.84;100.00
46347;BME280;32057;47.830;19.046;2023-06-22T04:54:36;100477.69;;;19.96;100.00
46347;BME280;32057;47.830;19.046;2023-06-22T04:57:03;100471.53;;;19.97;100.00
46347;BME280;32057;47.830;19.046;2023-06-22T04:59:30;100470.50;;;20.04;100.00
46347;BME280;32057;47.830;19.046;2023-06-22T05:01:57;100465.84;;;20.19;100.00
46347;BME280;32057;47.830;19.046;2023-06-22T05:04:23;100461.16;;;20.36;100.00
46347;BME280;32057;47.830;19.046;2023-06-22T05:06:50;100462.97;;;20.33;100.00
46347;BME280;32057;47.830;19.046;2023-06-22T05:09:15;100464.06;;;20.21;100.00
46347;BME280;32057;47.830;19.046;2023-06-22T05:11:40;100464.13;;;20.19;100.00
46347;BME280;32057;47.830;19.046;2023-06-22T05:14:06;100472.06;;;20.18;100.00
46347;BME280;32057;47.830;19.046;2023-06-22T05:16:32;100470.31;;;20.17;100.00
46347;BME280;32057;47.830;19.046;2023-06-22T05:18:58;100470.25;;;20.20;100.00
46347;BME280;32057;47.830;19.046;2023-06-22T05:21:24;100475.44;;;20.26;100.00
46347;BME280;32057;47.830;19.046;2023-06-22T05:23:51;100475.41;;;20.29;100.00
46347;BME280;32057;47.830;19.046;2023-06-22T05:26:17;100484.94;;;20.38;100.00
46347;BME280;32057;47.830;19.046;2023-06-22T05:28:42;100487.47;;;20.42;100.00
46347;BME280;32057;47.830;19.046;2023-06-22T05:31:11;100483.88;;;20.46;100.00
46347;BME280;32057;47.830;19.046;2023-06-22T05:33:37;100491.88;;;20.45;100.00
46347;BME280;32057;47.830;19.046;2023-06-22T05:36:02;100496.09;;;20.54;100.00
46347;BME280;32057;47.830;19.046;2023-06-22T05:38:28;100490.66;;;20.63;100.00
46347;BME280;32057;47.830;19.046;2023-06-22T05:40:53;100487.00;;;20.70;100.00
46347;BME280;32057;47.830;19.046;2023-06-22T05:43:18;100493.84;;;20.82;100.00
46347;BME280;32057;47.830;19.046;2023-06-22T05:45:44;100499.00;;;20.89;100.00
46347;BME280;32057;47.830;19.046;2023-06-22T05:48:09;100496.19;;;20.97;100.00
46347;BME280;32057;47.830;19.046;2023-06-22T05:50:35;100501.38;;;21.03;100.00
46347;BME280;32057;47.830;19.046;2023-06-22T05:53:00;100500.25;;;21.15;100.00
46347;BME280;32057;47.830;19.046;2023-06-22T05:55:26;100497.38;;;21.26;100.00
46347;BME280;32057;47.830;19.046;2023-06-22T05:57:51;100499.00;;;21.32;100.00
46347;BME280;32057;47.830;19.046;2023-06-22T06:00:17;100491.75;;;21.43;100.00
46347;BME280;32057;47.830;19.046;2023-06-22T06:02:42;100487.09;;;21.53;100.00
46347;BME280;32057;47.830;19.046;2023-06-22T06:05:11;100492.22;;;21.60;100.00
46347;BME280;32057;47.830;19.046;2023-06-22T06:07:39;100485.81;;;21.71;100.00
46347;BME280;32057;47.830;19.046;2023-06-22T06:10:05;100485.59;;;21.81;100.00
46347;BME280;32057;47.830;19.046;2023-06-22T06:12:31;100489.81;;;21.88;100.00
46347;BME280;32057;47.830;19.046;2023-06-22T06:14:56;100491.16;;;22.06;100.00
46347;BME280;32057;47.830;19.046;2023-06-22T06:17:22;100502.38;;;22.18;100.00
46347;BME280;32057;47.830;19.046;2023-06-22T06:19:47;100498.28;;;22.40;100.00
46347;BME280;32057;47.830;19.046;2023-06-22T06:22:13;100500.78;;;22.46;100.00
46347;BME280;32057;47.830;19.046;2023-06-22T06:24:38;100500.88;;;22.43;100.00
46347;BME280;32057;47.830;19.046;2023-06-22T06:27:04;100495.53;;;22.45;100.00
46347;BME280;32057;47.830;19.046;2023-06-22T06:29:30;100490.25;;;22.43;100.00
46347;BME280;32057;47.830;19.046;2023-06-22T06:31:56;100488.09;;;22.58;100.00
46347;BME280;32057;47.830;19.046;2023-06-22T06:34:22;100487.69;;;22.73;100.00
46347;BME280;32057;47.830;19.046;2023-06-22T06:36:47;100484.66;;;22.87;100.00
46347;BME280;32057;47.830;19.046;2023-06-22T06:39:13;100489.84;;;22.92;100.00
46347;BME280;32057;47.830;19.046;2023-06-22T06:41:38;100483.84;;;23.16;100.00
46347;BME280;32057;47.830;19.046;2023-06-22T06:44:03;100483.59;;;23.25;100.00
46347;BME280;32057;47.830;19.046;2023-06-22T06:46:29;100478.84;;;23.37;100.00
46347;BME280;32057;47.830;19.046;2023-06-22T06:48:54;100476.50;;;23.54;100.00
46347;BME280;32057;47.830;19.046;2023-06-22T06:51:20;100477.91;;;23.66;100.00
46347;BME280;32057;47.830;19.046;2023-06-22T06:53:45;100467.50;;;23.88;100.00
46347;BME280;32057;47.830;19.046;2023-06-22T06:56:11;100474.78;;;24.10;100.00
46347;BME280;32057;47.830;19.046;2023-06-22T06:58:38;100468.75;;;24.31;100.00
46347;BME280;32057;47.830;19.046;2023-06-22T07:01:04;100465.78;;;24.65;100.00
46347;BME280;32057;47.830;19.046;2023-06-22T07:03:29;100466.00;;;24.84;100.00
46347;BME280;32057;47.830;19.046;2023-06-22T07:05:55;100467.47;;;24.68;100.00
46347;BME280;32057;47.830;19.046;2023-06-22T07:08:20;100466.59;;;24.93;100.00
46347;BME280;32057;47.830;19.046;2023-06-22T07:10:46;100470.06;;;24.95;100.00
46347;BME280;32057;47.830;19.046;2023-06-22T07:13:11;100475.63;;;24.89;100.00
46347;BME280;32057;47.830;19.046;2023-06-22T07:15:37;100479.16;;;25.13;100.00
46347;BME280;32057;47.830;19.046;2023-06-22T07:18:02;100485.63;;;25.31;100.00
46347;BME280;32057;47.830;19.046;2023-06-22T07:20:28;100480.38;;;25.51;100.00
46347;BME280;32057;47.830;19.046;2023-06-22T07:22:53;100483.31;;;25.67;100.00
46347;BME280;32057;47.830;19.046;2023-06-22T07:25:19;100478.88;;;25.66;100.00
46347;BME280;32057;47.830;19.046;2023-06-22T07:28:06;100492.28;;;25.64;100.00
46347;BME280;32057;47.830;19.046;2023-06-22T07:30:33;100488.56;;;25.92;100.00
46347;BME280;32057;47.830;19.046;2023-06-22T07:32:59;100490.84;;;25.78;100.00
46347;BME280;32057;47.830;19.046;2023-06-22T07:35:32;100489.94;;;25.79;100.00
46347;BME280;32057;47.830;19.046;2023-06-22T07:37:58;100485.38;;;26.05;100.00
46347;BME280;32057;47.830;19.046;2023-06-22T07:40:23;100486.31;;;26.24;100.00
46347;BME280;32057;47.830;19.046;2023-06-22T07:42:59;100476.88;;;26.37;100.00
46347;BME280;32057;47.830;19.046;2023-06-22T07:45:25;100483.69;;;26.45;99.43
46347;BME280;32057;47.830;19.046;2023-06-22T07:47:50;100480.19;;;26.22;97.26
46347;BME280;32057;47.830;19.046;2023-06-22T07:50:16;100481.34;;;26.16;97.87
46347;BME280;32057;47.830;19.046;2023-06-22T07:52:41;100479.84;;;26.09;98.83
46347;BME280;32057;47.830;19.046;2023-06-22T07:55:07;100479.28;;;26.01;98.24
46347;BME280;32057;47.830;19.046;2023-06-22T07:57:32;100476.31;;;25.87;98.48
46347;BME280;32057;47.830;19.046;2023-06-22T08:00:04;100470.75;;;25.93;99.28
46347;BME280;32057;47.830;19.046;2023-06-22T08:02:37;100468.00;;;26.16;98.08
46347;BME280;32057;47.830;19.046;2023-06-22T08:05:02;100462.41;;;26.22;95.10
46347;BME280;32057;47.830;19.046;2023-06-22T08:07:27;100467.13;;;26.57;95.92
46347;BME280;32057;47.830;19.046;2023-06-22T08:09:53;100467.03;;;26.60;90.93
46347;BME280;32057;47.830;19.046;2023-06-22T08:12:18;100469.88;;;26.76;90.15
46347;BME280;32057;47.830;19.046;2023-06-22T08:14:44;100463.50;;;26.99;92.44
46347;BME280;32057;47.830;19.046;2023-06-22T08:17:11;100458.38;;;26.94;85.29
46347;BME280;32057;47.830;19.046;2023-06-22T08:19:37;100456.00;;;27.07;90.36
46347;BME280;32057;47.830;19.046;2023-06-22T08:22:03;100448.97;;;27.25;93.50
46347;BME280;32057;47.830;19.046;2023-06-22T08:24:28;100456.69;;;27.50;96.08
46347;BME280;32057;47.830;19.046;2023-06-22T08:26:55;100452.09;;;27.71;95.16
46347;BME280;32057;47.830;19.046;2023-06-22T08:29:21;100452.38;;;27.84;91.26
46347;BME280;32057;47.830;19.046;2023-06-22T08:31:46;100456.00;;;27.07;85.45
46347;BME280;32057;47.830;19.046;2023-06-22T08:34:12;100454.72;;;27.54;88.07
46347;BME280;32057;47.830;19.046;2023-06-22T08:36:37;100458.00;;;27.41;84.67
46347;BME280;32057;47.830;19.046;2023-06-22T08:39:06;100455.81;;;27.50;83.47
46347;BME280;32057;47.830;19.046;2023-06-22T08:41:32;100452.06;;;27.35;86.21
46347;BME280;32057;47.830;19.046;2023-06-22T08:43:57;100454.03;;;27.31;89.81
46347;BME280;32057;47.830;19.046;2023-06-22T08:46:23;100457.91;;;27.62;90.97
46347;BME280;32057;47.830;19.046;2023-06-22T08:48:55;100453.72;;;27.56;79.69
46347;BME280;32057;47.830;19.046;2023-06-22T08:51:21;100454.88;;;27.32;81.01
46347;BME280;32057;47.830;19.046;2023-06-22T08:53:46;100455.69;;;27.53;83.67
46347;BME280;32057;47.830;19.046;2023-06-22T08:56:12;100445.28;;;27.83;87.14
46347;BME280;32057;47.830;19.046;2023-06-22T08:58:37;100439.50;;;28.10;84.41
46347;BME280;32057;47.830;19.046;2023-06-22T09:01:02;100444.44;;;27.83;78.03
46347;BME280;32057;47.830;19.046;2023-06-22T09:03:28;100434.75;;;27.80;78.91
46347;BME280;32057;47.830;19.046;2023-06-22T09:05:53;100438.31;;;27.61;83.99
46347;BME280;32057;47.830;19.046;2023-06-22T09:08:19;100436.13;;;27.70;77.89
46347;BME280;32057;47.830;19.046;2023-06-22T09:10:45;100434.78;;;27.61;79.69
46347;BME280;32057;47.830;19.046;2023-06-22T09:13:10;100428.31;;;27.84;77.35
46347;BME280;32057;47.830;19.046;2023-06-22T09:15:35;100426.31;;;28.24;79.55
46347;BME280;32057;47.830;19.046;2023-06-22T09:18:01;100424.91;;;28.52;79.44
46347;BME280;32057;47.830;19.046;2023-06-22T09:20:26;100435.81;;;28.47;81.02
46347;BME280;32057;47.830;19.046;2023-06-22T09:22:52;100421.94;;;28.74;81.96
46347;BME280;32057;47.830;19.046;2023-06-22T09:25:17;100424.50;;;28.75;82.69
46347;BME280;32057;47.830;19.046;2023-06-22T09:27:46;100418.69;;;28.85;82.21
46347;BME280;32057;47.830;19.046;2023-06-22T09:30:11;100428.97;;;28.92;80.22
46347;BME280;32057;47.830;19.046;2023-06-22T09:32:37;100426.41;;;29.07;79.49
46347;BME280;32057;47.830;19.046;2023-06-22T09:35:05;100422.22;;;29.01;73.41
46347;BME280;32057;47.830;19.046;2023-06-22T09:37:31;100422.34;;;29.15;73.00
46347;BME280;32057;47.830;19.046;2023-06-22T09:39:56;100427.50;;;29.20;76.50
46347;BME280;32057;47.830;19.046;2023-06-22T09:42:22;100415.88;;;29.35;76.59
46347;BME280;32057;47.830;19.046;2023-06-22T09:44:47;100419.78;;;29.46;78.31
46347;BME280;32057;47.830;19.046;2023-06-22T09:47:13;100418.31;;;29.40;75.55
46347;BME280;32057;47.830;19.046;2023-06-22T09:49:38;100424.47;;;29.42;76.50
46347;BME280;32057;47.830;19.046;2023-06-22T09:52:04;100419.69;;;29.47;73.07
46347;BME280;32057;47.830;19.046;2023-06-22T09:54:29;100411.63;;;29.47;77.09
46347;BME280;32057;47.830;19.046;2023-06-22T09:56:54;100420.81;;;29.43;77.95
46347;BME280;32057;47.830;19.046;2023-06-22T09:59:20;100424.63;;;29.23;78.79
46347;BME280;32057;47.830;19.046;2023-06-22T10:01:45;100418.06;;;29.45;80.09
46347;BME280;32057;47.830;19.046;2023-06-22T10:04:11;100411.06;;;29.74;84.35
46347;BME280;32057;47.830;19.046;2023-06-22T10:06:36;100409.97;;;29.92;82.23
46347;BME280;32057;47.830;19.046;2023-06-22T10:09:01;100418.34;;;30.02;79.91
46347;BME280;32057;47.830;19.046;2023-06-22T10:11:27;100414.22;;;30.11;75.78
46347;BME280;32057;47.830;19.046;2023-06-22T10:13:55;100409.91;;;29.78;73.49
46347;BME280;32057;47.830;19.046;2023-06-22T10:16:20;100407.13;;;29.64;71.16
46347;BME280;32057;47.830;19.046;2023-06-22T10:18:46;100408.03;;;29.48;69.28
46347;BME280;32057;47.830;19.046;2023-06-22T10:21:11;100409.56;;;29.84;69.71
46347;BME280;32057;47.830;19.046;2023-06-22T10:23:37;100403.25;;;29.99;68.89
46347;BME280;32057;47.830;19.046;2023-06-22T10:26:02;100407.88;;;29.82;61.66
46347;BME280;32057;47.830;19.046;2023-06-22T10:28:27;100412.19;;;29.38;61.64
46347;BME280;32057;47.830;19.046;2023-06-22T10:30:53;100407.22;;;29.78;65.34
46347;BME280;32057;47.830;19.046;2023-06-22T10:33:18;100414.59;;;30.05;66.19
46347;BME280;32057;47.830;19.046;2023-06-22T10:35:44;100405.88;;;30.15;65.82
46347;BME280;32057;47.830;19.046;2023-06-22T10:38:09;100404.09;;;30.16;66.13
46347;BME280;32057;47.830;19.046;2023-06-22T10:40:35;100401.13;;;29.90;59.26
46347;BME280;32057;47.830;19.046;2023-06-22T10:43:00;100398.34;;;30.22;59.18
46347;BME280;32057;47.830;19.046;2023-06-22T10:45:25;100391.06;;;30.24;63.18
46347;BME280;32057;47.830;19.046;2023-06-22T10:47:52;100404.28;;;29.83;61.07
46347;BME280;32057;47.830;19.046;2023-06-22T10:50:18;100396.91;;;29.86;61.46
46347;BME280;32057;47.830;19.046;2023-06-22T10:52:43;100400.63;;;30.14;64.00
46347;BME280;32057;47.830;19.046;2023-06-22T10:55:09;100392.84;;;29.79;59.03
46347;BME280;32057;47.830;19.046;2023-06-22T10:57:35;100393.53;;;30.13;63.61
46347;BME280;32057;47.830;19.046;2023-06-22T11:00:02;100389.84;;;29.99;63.40
46347;BME280;32057;47.830;19.046;2023-06-22T11:02:29;100390.75;;;30.14;63.64
46347;BME280;32057;47.830;19.046;2023-06-22T11:04:54;100386.44;;;30.12;61.32
46347;BME280;32057;47.830;19.046;2023-06-22T11:07:20;100388.91;;;30.01;61.25
46347;BME280;32057;47.830;19.046;2023-06-22T11:09:45;100394.00;;;29.75;59.62
46347;BME280;32057;47.830;19.046;2023-06-22T11:12:11;100385.28;;;30.02;60.16
46347;BME280;32057;47.830;19.046;2023-06-22T11:14:37;100384.00;;;29.93;55.63
46347;BME280;32057;47.830;19.046;2023-06-22T11:17:02;100383.13;;;29.92;58.12
46347;BME280;32057;47.830;19.046;2023-06-22T11:19:27;100374.28;;;29.60;56.31
46347;BME280;32057;47.830;19.046;2023-06-22T11:21:53;100374.75;;;29.83;60.81
46347;BME280;32057;47.830;19.046;2023-06-22T11:24:18;100384.66;;;29.96;61.05
46347;BME280;32057;47.830;19.046;2023-06-22T11:26:44;100376.47;;;30.14;60.46
46347;BME280;32057;47.830;19.046;2023-06-22T11:29:09;100375.44;;;29.86;57.84
46347;BME280;32057;47.830;19.046;2023-06-22T11:31:35;100380.69;;;30.04;54.08
46347;BME280;32057;47.830;19.046;2023-06-22T11:34:01;100376.63;;;30.41;55.92
46347;BME280;32057;47.830;19.046;2023-06-22T11:36:27;100373.84;;;30.43;58.24
46347;BME280;32057;47.830;19.046;2023-06-22T11:38:52;100379.59;;;30.65;54.72
46347;BME280;32057;47.830;19.046;2023-06-22T11:41:18;100374.44;;;30.48;55.99
46347;BME280;32057;47.830;19.046;2023-06-22T11:43:44;100368.69;;;30.54;55.59
46347;BME280;32057;47.830;19.046;2023-06-22T11:46:10;100370.59;;;30.66;56.21
46347;BME280;32057;47.830;19.046;2023-06-22T11:48:35;100364.75;;;30.88;58.15
46347;BME280;32057;47.830;19.046;2023-06-22T11:51:01;100368.19;;;30.90;58.53
46347;BME280;32057;47.830;19.046;2023-06-22T11:53:28;100365.22;;;30.95;55.45
46347;BME280;32057;47.830;19.046;2023-06-22T11:55:53;100367.13;;;30.93;53.95
46347;BME280;32057;47.830;19.046;2023-06-22T11:58:20;100367.41;;;31.03;57.59
46347;BME280;32057;47.830;19.046;2023-06-22T12:00:45;100355.72;;;30.89;54.72
46347;BME280;32057;47.830;19.046;2023-06-22T12:03:11;100357.34;;;31.06;56.63
46347;BME280;32057;47.830;19.046;2023-06-22T12:05:37;100357.47;;;30.90;53.70
46347;BME280;32057;47.830;19.046;2023-06-22T12:08:03;100349.84;;;30.97;51.11
46347;BME280;32057;47.830;19.046;2023-06-22T12:10:29;100354.84;;;30.89;52.99
46347;BME280;32057;47.830;19.046;2023-06-22T12:12:54;100356.19;;;30.82;54.84
46347;BME280;32057;47.830;19.046;2023-06-22T12:15:19;100355.22;;;30.83;57.45
46347;BME280;32057;47.830;19.046;2023-06-22T12:17:45;100347.06;;;30.84;55.63
46347;BME280;32057;47.830;19.046;2023-06-22T12:20:11;100344.66;;;31.08;58.49
46347;BME280;32057;47.830;19.046;2023-06-22T12:22:36;100347.16;;;30.97;56.59
46347;BME280;32057;47.830;19.046;2023-06-22T12:25:03;100340.09;;;30.96;55.59
46347;BME280;32057;47.830;19.046;2023-06-22T12:27:28;100342.69;;;30.98;56.77
46347;BME280;32057;47.830;19.046;2023-06-22T12:29:56;100336.50;;;31.10;57.46
46347;BME280;32057;47.830;19.046;2023-06-22T12:32:21;100327.31;;;31.27;60.96
46347;BME280;32057;47.830;19.046;2023-06-22T12:34:46;100335.84;;;31.33;54.07
46347;BME280;32057;47.830;19.046;2023-06-22T12:37:12;100324.53;;;31.28;56.61
46347;BME280;32057;47.830;19.046;2023-06-22T12:39:41;100328.78;;;31.18;56.69